Time;durP1;ratioP1;P1;durP2;ratioP2;P2;SDS_P1;SDS_P2;PMS_P1;PMS_P2;Temp;Humidity;BMP_temperature;BMP_pressure;BME280_temperature;BME280_humidity;BME280_pressure;Samples;Min_cycle;Max_cycle;Signal;HPM_P1;HPM_P2
2022/05/10 00:01:41;;;;;;;2.33;1.65;;;19.40;55.30;;;;;;5075856;28;20075;-72
2022/05/10 00:04:08;;;;;;;2.83;1.77;;;19.30;55.40;;;;;;5128307;27;20501;-72
2022/05/10 00:06:36;;;;;;;2.72;1.67;;;19.30;55.60;;;;;;5094527;28;20055;-72
2022/05/10 00:09:03;;;;;;;3.90;1.80;;;19.20;55.50;;;;;;5094342;28;20044;-72
2022/05/10 00:11:30;;;;;;;2.63;1.70;;;18.40;54.40;;;;;;5094010;28;20056;-72
2022/05/10 00:13:58;;;;;;;3.38;1.80;;;19.20;55.40;;;;;;5094311;28;20066;-72
2022/05/10 00:16:25;;;;;;;2.85;1.63;;;19.40;55.50;;;;;;5089088;28;20052;-72
2022/05/10 00:18:52;;;;;;;2.55;1.70;;;19.50;55.30;;;;;;5073805;28;20056;-72
2022/05/10 00:21:20;;;;;;;3.38;1.75;;;19.30;51.00;;;;;;5074637;28;20049;-72
2022/05/10 00:23:47;;;;;;;2.78;1.60;;;18.60;54.70;;;;;;5107285;28;20131;-72
2022/05/10 00:26:14;;;;;;;2.60;1.80;;;19.20;55.10;;;;;;5073439;28;20063;-72
2022/05/10 00:28:40;;;;;;;2.30;1.80;;;19.20;51.00;;;;;;5073663;28;20063;-72
2022/05/10 00:31:09;;;;;;;3.67;1.67;;;19.30;51.00;;;;;;5072930;28;20496;-72
2022/05/10 00:33:36;;;;;;;2.35;1.70;;;19.30;55.20;;;;;;5085585;28;20052;-72
2022/05/10 00:36:03;;;;;;;2.20;1.52;;;19.20;51.00;;;;;;5087601;28;20134;-72
2022/05/10 00:38:31;;;;;;;3.03;1.83;;;20.20;56.00;;;;;;5072300;28;20059;-72
2022/05/10 00:41:03;;;;;;;2.88;1.83;;;19.20;55.70;;;;;;5072397;28;20052;-72
2022/05/10 00:43:31;;;;;;;3.00;1.90;;;19.20;51.00;;;;;;5072205;28;20144;-72
2022/05/10 00:45:59;;;;;;;2.90;1.63;;;19.20;51.10;;;;;;5073346;28;20055;-72
2022/05/10 00:48:34;;;;;;;3.20;1.60;;;19.20;51.10;;;;;;5076389;28;20131;-72
2022/05/10 00:51:04;;;;;;;2.28;1.63;;;19.20;51.10;;;;;;5091620;28;20054;-72
2022/05/10 00:53:36;;;;;;;4.05;1.80;;;19.90;55.90;;;;;;5092050;28;20576;-72
2022/05/10 00:56:06;;;;;;;2.90;1.60;;;19.20;55.30;;;;;;5092341;28;20056;-72
2022/05/10 00:58:40;;;;;;;2.38;1.75;;;19.20;55.10;;;;;;5126671;28;20060;-72
2022/05/10 01:01:06;;;;;;;2.67;1.80;;;19.10;55.20;;;;;;5092324;28;20397;-72
2022/05/10 01:03:36;;;;;;;3.03;2.10;;;19.20;55.00;;;;;;5093376;28;20123;-72
2022/05/10 01:06:04;;;;;;;3.10;2.17;;;19.10;56.40;;;;;;5090083;28;20059;-72
2022/05/10 01:08:35;;;;;;;2.00;1.75;;;18.90;55.00;;;;;;5092176;28;20420;-72
2022/05/10 01:11:04;;;;;;;2.92;1.70;;;19.10;56.90;;;;;;5091628;28;20044;-72
2022/05/10 01:13:32;;;;;;;2.35;1.70;;;19.60;57.60;;;;;;5093137;28;20083;-72
2022/05/10 01:16:05;;;;;;;3.53;1.80;;;19.20;56.10;;;;;;5091620;28;20048;-72
2022/05/10 01:18:32;;;;;;;3.70;1.60;;;19.10;55.50;;;;;;5093045;28;20062;-72
2022/05/10 01:21:03;;;;;;;2.60;1.70;;;19.10;51.20;;;;;;5090927;28;20640;-72
2022/05/10 01:23:45;;;;;;;3.13;1.95;;;19.10;51.20;;;;;;5092961;28;20052;-72
2022/05/10 01:26:14;;;;;;;4.63;1.90;;;19.00;55.40;;;;;;5091574;28;20052;-72
2022/05/10 01:28:43;;;;;;;2.83;1.80;;;20.00;56.00;;;;;;5091663;28;20066;-72
2022/05/10 01:31:13;;;;;;;3.10;1.70;;;19.20;55.40;;;;;;5055020;28;1035388;-72
2022/05/10 01:33:41;;;;;;;2.80;1.67;;;19.00;55.30;;;;;;5092378;28;20503;-72
2022/05/10 01:36:13;;;;;;;3.08;1.80;;;19.10;55.40;;;;;;5126860;27;20059;-72
2022/05/10 01:38:43;;;;;;;2.28;1.60;;;18.00;54.80;;;;;;5076760;28;20419;-72
2022/05/10 01:41:13;;;;;;;2.72;1.70;;;19.20;55.70;;;;;;5072268;28;20053;-72
2022/05/10 01:43:43;;;;;;;4.30;1.73;;;19.00;51.20;;;;;;5072313;28;20083;-72
2022/05/10 01:46:13;;;;;;;2.53;1.70;;;20.00;56.70;;;;;;5072362;28;20409;-72
2022/05/10 01:48:40;;;;;;;2.60;1.80;;;19.10;51.30;;;;;;5073197;28;20390;-72
2022/05/10 01:51:10;;;;;;;2.15;1.75;;;18.80;55.30;;;;;;5071751;28;20051;-72
2022/05/10 01:53:37;;;;;;;3.30;2.20;;;19.00;51.20;;;;;;5106020;28;20048;-72
2022/05/10 01:56:05;;;;;;;2.25;1.80;;;19.20;55.80;;;;;;5072291;28;20052;-72
2022/05/10 01:58:33;;;;;;;2.08;1.70;;;19.00;51.30;;;;;;5071877;28;20056;-72
2022/05/10 02:01:02;;;;;;;2.60;1.80;;;19.00;51.20;;;;;;5071797;28;20131;-72
2022/05/10 02:03:29;;;;;;;3.53;2.00;;;18.70;56.80;;;;;;5070990;28;20060;-72
2022/05/10 02:05:58;;;;;;;2.28;1.80;;;18.20;55.10;;;;;;5071945;28;20570;-72
2022/05/10 02:08:29;;;;;;;2.70;2.00;;;19.00;55.60;;;;;;5072829;28;20079;-72
2022/05/10 02:10:58;;;;;;;2.65;2.00;;;18.80;52.10;;;;;;5072415;28;20150;-72
2022/05/10 02:13:28;;;;;;;2.92;1.98;;;19.30;56.50;;;;;;5071764;28;20086;-72
2022/05/10 02:15:57;;;;;;;3.22;1.70;;;18.70;55.40;;;;;;5071537;28;20393;-72
2022/05/10 02:18:27;;;;;;;1.90;1.65;;;18.30;55.40;;;;;;5072611;28;20045;-72
2022/05/10 02:20:57;;;;;;;2.03;1.70;;;18.00;55.00;;;;;;5072540;28;20412;-72
2022/05/10 02:23:25;;;;;;;2.92;2.00;;;18.90;51.30;;;;;;5071481;28;20404;-72
2022/05/10 02:25:56;;;;;;;2.65;2.03;;;19.00;55.80;;;;;;5074060;28;20688;-72
2022/05/10 02:28:25;;;;;;;2.33;1.83;;;18.90;56.70;;;;;;5071399;28;20056;-72
2022/05/10 02:30:52;;;;;;;3.50;1.85;;;18.00;56.40;;;;;;5071072;28;20063;-72
2022/05/10 02:33:17;;;;;;;2.25;1.85;;;19.00;55.80;;;;;;5071002;28;20044;-72
2022/05/10 02:35:47;;;;;;;3.50;2.00;;;18.90;51.30;;;;;;5071182;28;20135;-72
2022/05/10 02:38:15;;;;;;;3.00;2.03;;;18.90;56.50;;;;;;5072151;28;20050;-72
2022/05/10 02:40:42;;;;;;;3.22;1.88;;;18.90;56.40;;;;;;5071083;28;20055;-72
2022/05/10 02:43:10;;;;;;;2.90;1.90;;;21.10;52.60;;;;;;5086217;28;20135;-72
2022/05/10 02:45:37;;;;;;;2.83;1.95;;;18.80;55.90;;;;;;5091346;28;20051;-72
2022/05/10 02:48:05;;;;;;;2.00;1.80;;;19.20;55.70;;;;;;5092392;28;20059;-72
2022/05/10 02:50:33;;;;;;;3.05;1.90;;;18.70;55.80;;;;;;5125108;27;20051;-72
2022/05/10 02:53:01;;;;;;;2.42;1.80;;;18.90;51.40;;;;;;5091431;28;20056;-72
2022/05/10 02:55:33;;;;;;;4.53;2.10;;;18.60;55.50;;;;;;5091445;28;20052;-72
2022/05/10 02:58:01;;;;;;;3.30;2.20;;;20.20;58.00;;;;;;5119805;27;20482;-72
2022/05/10 03:00:28;;;;;;;2.95;2.08;;;20.00;57.70;;;;;;5072505;28;20048;-72
2022/05/10 03:02:57;;;;;;;2.50;2.00;;;18.80;51.40;;;;;;5072148;28;20055;-72
2022/05/10 03:05:24;;;;;;;3.22;2.13;;;19.00;55.60;;;;;;5070842;28;20056;-72
2022/05/10 03:07:53;;;;;;;3.25;2.13;;;;;;;;;;5072059;28;20047;-72
2022/05/10 03:10:22;;;;;;;3.17;2.20;;;18.90;55.70;;;;;;5070455;28;20056;-72
2022/05/10 03:12:49;;;;;;;2.58;1.80;;;18.80;51.40;;;;;;5070884;28;20052;-72
2022/05/10 03:15:15;;;;;;;3.28;2.22;;;18.80;51.40;;;;;;5071168;28;20079;-72
2022/05/10 03:17:42;;;;;;;3.10;2.08;;;17.90;55.20;;;;;;5104694;28;20052;-72
2022/05/10 03:20:10;;;;;;;2.38;2.10;;;19.00;55.60;;;;;;5070680;28;20055;-72
2022/05/10 03:22:37;;;;;;;2.97;2.10;;;18.70;56.90;;;;;;5070848;28;20048;-72
2022/05/10 03:25:04;;;;;;;3.03;2.30;;;18.80;51.40;;;;;;5071170;28;20412;-72
2022/05/10 03:27:34;;;;;;;3.25;2.38;;;18.90;57.30;;;;;;5070932;28;20056;-72
2022/05/10 03:30:02;;;;;;;2.63;2.10;;;18.80;51.50;;;;;;5071951;28;20060;-72
2022/05/10 03:32:29;;;;;;;3.05;2.10;;;18.90;57.30;;;;;;5070386;28;20131;-72
2022/05/10 03:34:57;;;;;;;3.00;2.33;;;18.80;51.50;;;;;;5070986;28;20397;-72
2022/05/10 03:37:25;;;;;;;3.28;2.20;;;19.00;56.10;;;;;;5070506;28;20382;-72
2022/05/10 03:39:51;;;;;;;3.85;2.50;;;18.80;51.50;;;;;;5070737;28;20052;-72
2022/05/10 03:42:18;;;;;;;3.25;2.13;;;18.70;55.90;;;;;;5104339;28;20055;-72
2022/05/10 03:44:49;;;;;;;3.42;2.45;;;18.80;56.50;;;;;;5070591;28;20064;-72
2022/05/10 03:47:17;;;;;;;3.72;2.40;;;18.70;57.60;;;;;;5083671;28;20060;-72
2022/05/10 03:49:45;;;;;;;3.50;2.40;;;18.60;55.70;;;;;;5090377;28;20048;-72
2022/05/10 03:52:12;;;;;;;3.00;2.10;;;18.70;51.50;;;;;;5090518;28;20048;-72
2022/05/10 03:54:41;;;;;;;2.92;2.22;;;18.70;51.50;;;;;;5090578;28;20048;-72
2022/05/10 03:57:08;;;;;;;3.28;2.33;;;18.70;55.70;;;;;;5090407;28;20133;-72
2022/05/10 03:59:37;;;;;;;2.65;2.30;;;18.70;51.50;;;;;;5090241;28;20080;-72
2022/05/10 04:02:05;;;;;;;2.83;2.30;;;18.80;58.20;;;;;;5090701;28;20135;-72
2022/05/10 04:04:32;;;;;;;2.65;2.17;;;18.80;55.90;;;;;;5090736;28;20056;-72
2022/05/10 04:06:59;;;;;;;3.20;2.53;;;18.50;55.50;;;;;;5091777;28;20538;-72
2022/05/10 04:09:25;;;;;;;4.05;2.47;;;18.70;55.90;;;;;;5090203;28;20056;-72
2022/05/10 04:11:52;;;;;;;3.53;2.50;;;18.70;55.70;;;;;;5091458;28;20051;-72
2022/05/10 04:14:19;;;;;;;2.83;2.28;;;17.90;55.60;;;;;;5090552;28;20063;-72
2022/05/10 04:16:45;;;;;;;3.00;2.22;;;18.60;56.20;;;;;;5080066;28;20056;-72
2022/05/10 04:19:13;;;;;;;2.90;2.35;;;19.00;57.70;;;;;;5071134;28;20059;-72
2022/05/10 04:21:40;;;;;;;2.90;2.30;;;18.80;55.90;;;;;;5070093;28;20051;-72
2022/05/10 04:24:08;;;;;;;3.83;2.70;;;18.80;56.00;;;;;;5070240;28;20053;-72
2022/05/10 04:26:35;;;;;;;2.75;2.35;;;18.70;51.60;;;;;;5073972;28;20050;-73
2022/05/10 04:29:01;;;;;;;4.00;2.63;;;18.10;55.60;;;;;;5073822;28;20401;-72
2022/05/10 04:31:28;;;;;;;3.45;2.50;;;18.70;57.10;;;;;;5073634;28;20055;-72
2022/05/10 04:33:55;;;;;;;3.40;2.20;;;17.70;55.50;;;;;;5093979;28;20074;-72
2022/05/10 04:36:25;;;;;;;3.67;2.55;;;18.60;51.60;;;;;;5095182;28;20054;-72
2022/05/10 04:38:51;;;;;;;2.85;2.28;;;18.40;56.00;;;;;;5095065;28;20044;-72
2022/05/10 04:41:27;;;;;;;3.55;2.80;;;19.30;56.70;;;;;;5093194;28;20059;-73
2022/05/10 04:43:55;;;;;;;4.65;2.63;;;18.10;55.50;;;;;;5094012;28;20136;-72
2022/05/10 04:46:21;;;;;;;4.25;2.60;;;18.80;56.40;;;;;;5093861;28;20079;-73
2022/05/10 04:48:48;;;;;;;3.78;2.50;;;19.00;56.30;;;;;;5081771;28;20048;-72
2022/05/10 04:51:15;;;;;;;3.38;2.78;;;18.80;57.00;;;;;;5073173;28;20408;-72
2022/05/10 04:53:43;;;;;;;4.35;3.13;;;17.80;55.70;;;;;;5074377;28;20041;-72
2022/05/10 04:56:09;;;;;;;4.75;2.60;;;18.60;55.80;;;;;;5073414;28;20060;-72
2022/05/10 04:58:36;;;;;;;3.92;2.95;;;17.70;55.40;;;;;;5073502;28;20405;-72
2022/05/10 05:01:04;;;;;;;3.28;2.70;;;18.10;56.40;;;;;;5074151;28;20517;-72
2022/05/10 05:03:31;;;;;;;3.38;2.70;;;18.30;56.70;;;;;;5073194;28;20048;-72
2022/05/10 05:05:58;;;;;;;4.18;3.13;;;18.60;51.60;;;;;;5074397;28;20086;-72
2022/05/10 05:08:24;;;;;;;3.60;2.70;;;17.90;57.50;;;;;;5072712;28;20084;-72
2022/05/10 05:10:53;;;;;;;4.85;3.40;;;18.60;56.40;;;;;;5073932;28;20040;-72
2022/05/10 05:13:19;;;;;;;2.90;2.60;;;19.30;57.70;;;;;;5073103;28;20059;-72
2022/05/10 05:15:46;;;;;;;3.45;2.90;;;18.60;51.60;;;;;;5073189;28;20114;-73
2022/05/10 05:18:13;;;;;;;5.13;3.10;;;18.60;51.60;;;;;;5072764;28;20060;-72
2022/05/10 05:20:40;;;;;;;3.63;2.90;;;18.50;56.60;;;;;;5076753;28;20488;-72
2022/05/10 05:23:08;;;;;;;4.30;3.30;;;19.30;56.30;;;;;;5093023;28;20050;-72
2022/05/10 05:25:36;;;;;;;3.30;2.75;;;18.50;56.00;;;;;;5092866;28;20047;-72
2022/05/10 05:28:04;;;;;;;3.95;3.10;;;18.60;51.60;;;;;;5093038;28;20055;-72
2022/05/10 05:30:32;;;;;;;3.85;3.10;;;18.70;53.80;;;;;;5092573;28;20052;-72
2022/05/10 05:32:59;;;;;;;4.47;3.10;;;18.70;56.10;;;;;;5093865;28;20135;-72
2022/05/10 05:35:25;;;;;;;4.40;2.80;;;18.50;56.10;;;;;;5093544;28;20046;-72
2022/05/10 05:37:54;;;;;;;3.38;2.97;;;19.00;57.30;;;;;;5099286;28;20043;-71
2022/05/10 05:40:21;;;;;;;3.38;3.05;;;18.70;58.20;;;;;;5085146;28;20056;-71
2022/05/10 05:42:48;;;;;;;3.97;3.20;;;18.50;55.90;;;;;;5082907;28;20043;-72
2022/05/10 05:45:17;;;;;;;4.15;2.92;;;18.10;55.80;;;;;;5097965;28;20062;-72
2022/05/10 05:47:44;;;;;;;4.35;3.10;;;18.10;56.40;;;;;;5102380;28;20054;-72
2022/05/10 05:50:12;;;;;;;5.07;3.05;;;18.60;57.90;;;;;;5107219;28;20055;-72
2022/05/10 05:52:39;;;;;;;3.88;3.10;;;18.00;56.00;;;;;;5101364;28;20369;-72
2022/05/10 05:55:06;;;;;;;3.50;2.70;;;18.30;56.40;;;;;;5092455;28;20047;-72
2022/05/10 05:57:33;;;;;;;4.05;3.00;;;18.60;51.70;;;;;;5093555;28;20412;-71
2022/05/10 06:00:00;;;;;;;3.38;2.90;;;18.60;51.70;;;;;;5092275;28;20196;-72
2022/05/10 06:02:28;;;;;;;3.50;2.90;;;18.80;56.30;;;;;;5091354;28;20420;-72
2022/05/10 06:04:55;;;;;;;3.30;2.50;;;18.90;56.00;;;;;;5093450;28;20048;-72
2022/05/10 06:07:21;;;;;;;3.10;2.60;;;18.70;55.90;;;;;;5093298;28;20390;-71
2022/05/10 06:09:48;;;;;;;3.45;2.70;;;18.90;56.20;;;;;;5089819;28;20481;-72
2022/05/10 06:12:16;;;;;;;5.43;2.97;;;18.80;57.30;;;;;;5091927;28;20071;-72
2022/05/10 06:14:43;;;;;;;3.97;2.97;;;19.10;56.00;;;;;;5093164;28;20048;-72
2022/05/10 06:17:10;;;;;;;5.47;3.13;;;19.20;56.00;;;;;;5093258;28;20392;-73
2022/05/10 06:19:39;;;;;;;3.83;2.60;;;18.50;55.80;;;;;;5091812;28;20127;-72
2022/05/10 06:22:06;;;;;;;4.57;2.80;;;18.80;51.50;;;;;;5091313;28;20044;-72
2022/05/10 06:24:33;;;;;;;3.58;2.75;;;18.90;51.50;;;;;;5090149;28;20040;-73
2022/05/10 06:27:00;;;;;;;3.67;2.40;;;19.00;55.60;;;;;;5088614;28;20044;-73
2022/05/10 06:29:27;;;;;;;3.25;2.25;;;18.90;51.40;;;;;;5090795;28;20058;-72
2022/05/10 06:31:53;;;;;;;4.05;2.80;;;19.60;55.90;;;;;;5091234;28;20051;-73
2022/05/10 06:34:20;;;;;;;3.13;2.38;;;19.10;55.70;;;;;;5091755;28;20398;-71
2022/05/10 06:36:48;;;;;;;4.93;2.38;;;18.40;55.20;;;;;;5092862;28;20508;-71
2022/05/10 06:39:15;;;;;;;3.35;2.53;;;19.10;55.50;;;;;;5091342;28;20058;-72
2022/05/10 06:41:41;;;;;;;3.80;2.60;;;18.80;56.80;;;;;;5079702;28;20055;-72
2022/05/10 06:44:08;;;;;;;3.03;2.35;;;18.80;55.60;;;;;;5071044;28;20052;-73
2022/05/10 06:46:35;;;;;;;2.95;2.50;;;19.30;55.50;;;;;;5071203;28;20060;-72
2022/05/10 06:49:04;;;;;;;3.03;2.25;;;19.40;55.50;;;;;;5070861;28;20062;-72
2022/05/10 06:51:30;;;;;;;3.40;2.60;;;19.40;51.10;;;;;;5071098;28;20487;-71
2022/05/10 06:53:58;;;;;;;3.38;2.47;;;19.60;55.50;;;;;;5071194;28;20059;-72
2022/05/10 06:56:25;;;;;;;4.32;2.40;;;19.30;55.40;;;;;;5071340;28;20413;-72
2022/05/10 06:58:52;;;;;;;2.95;2.33;;;19.80;56.20;;;;;;5072765;28;20059;-72
2022/05/10 07:01:19;;;;;;;4.35;2.60;;;19.60;50.80;;;;;;5090451;28;20443;-73
2022/05/10 07:03:47;;;;;;;2.92;2.30;;;20.60;56.50;;;;;;5090925;28;20059;-72
2022/05/10 07:06:16;;;;;;;2.88;2.40;;;20.20;56.00;;;;;;5091262;28;20052;-72
2022/05/10 07:08:42;;;;;;;4.90;2.63;;;19.70;55.00;;;;;;5090892;28;20489;-72
2022/05/10 07:11:10;;;;;;;3.28;2.33;;;20.00;50.60;;;;;;5090877;28;20052;-72
2022/05/10 07:13:39;;;;;;;4.13;2.40;;;20.00;50.50;;;;;;5081617;28;20048;-73
2022/05/10 07:16:06;;;;;;;3.47;2.53;;;20.40;55.60;;;;;;5070875;28;20059;-72
2022/05/10 07:18:32;;;;;;;3.72;2.28;;;20.00;55.90;;;;;;5070703;28;20060;-72
2022/05/10 07:20:59;;;;;;;3.50;2.53;;;20.40;54.70;;;;;;5071684;28;20041;-73
2022/05/10 07:23:29;;;;;;;3.08;2.30;;;19.70;54.30;;;;;;5070857;28;20055;-72
2022/05/10 07:25:56;;;;;;;4.45;2.33;;;20.10;50.30;;;;;;5070843;28;20051;-73
2022/05/10 07:28:24;;;;;;;3.22;2.55;;;20.10;55.10;;;;;;5070317;28;20052;-72
2022/05/10 07:30:50;;;;;;;6.10;2.53;;;20.20;55.40;;;;;;5071807;28;20059;-72
2022/05/10 07:33:19;;;;;;;4.00;2.10;;;20.20;50.90;;;;;;5085353;28;20494;-71
2022/05/10 07:38:30;;;;;;;4.03;2.40;;;20.60;50.50;;;;;;5089837;28;20044;-72
2022/05/10 07:40:57;;;;;;;3.22;2.33;;;20.20;55.00;;;;;;5124352;28;20399;-72
2022/05/10 07:43:25;;;;;;;3.58;2.33;;;19.70;54.30;;;;;;5091195;28;20054;-73
2022/05/10 07:45:52;;;;;;;3.45;2.30;;;20.70;54.70;;;;;;5090130;28;20122;-73
2022/05/10 07:48:19;;;;;;;4.30;2.33;;;20.10;54.60;;;;;;5091873;28;20069;-73
2022/05/10 07:50:46;;;;;;;4.28;2.47;;;20.70;56.10;;;;;;5090176;28;20134;-73
2022/05/10 07:53:12;;;;;;;4.22;2.28;;;20.80;54.40;;;;;;5089441;28;20052;-73
2022/05/10 07:55:39;;;;;;;4.35;2.40;;;20.70;54.80;;;;;;5124463;28;20058;-73
2022/05/10 07:58:06;;;;;;;4.20;2.55;;;20.80;50.00;;;;;;5090690;28;20401;-73
2022/05/10 08:00:34;;;;;;;4.05;2.45;;;20.90;49.90;;;;;;5125940;27;20060;-72
2022/05/10 08:03:07;;;;;;;5.18;2.60;;;20.60;54.00;;;;;;5093722;28;20048;-73
2022/05/10 08:05:33;;;;;;;4.10;2.40;;;19.80;54.50;;;;;;5096029;28;20134;-73
2022/05/10 08:08:04;;;;;;;4.22;2.30;;;21.00;49.90;;;;;;5094447;28;20424;-73
2022/05/10 08:10:30;;;;;;;3.92;2.30;;;21.00;49.80;;;;;;5128614;27;20485;-73
2022/05/10 08:12:57;;;;;;;3.97;2.40;;;21.00;49.80;;;;;;5095601;28;20040;-73
2022/05/10 08:15:24;;;;;;;4.82;2.58;;;20.90;55.40;;;;;;5077660;28;20404;-73
2022/05/10 08:17:52;;;;;;;3.13;2.22;;;20.80;54.10;;;;;;5126544;27;20052;-72
2022/05/10 08:20:19;;;;;;;3.03;2.10;;;20.90;53.70;;;;;;5094207;28;20054;-72
2022/05/10 08:22:46;;;;;;;3.88;2.38;;;20.20;55.00;;;;;;5128265;27;20059;-73
2022/05/10 08:25:13;;;;;;;4.80;2.20;;;20.90;53.40;;;;;;5094385;28;20078;-72
2022/05/10 08:27:40;;;;;;;3.95;2.30;;;21.00;53.40;;;;;;5094820;28;20044;-73
2022/05/10 08:30:07;;;;;;;3.80;2.25;;;21.10;49.70;;;;;;5094049;28;20052;-73
2022/05/10 08:32:34;;;;;;;2.63;2.20;;;21.40;55.00;;;;;;5093796;28;20424;-73
2022/05/10 08:35:03;;;;;;;3.08;2.20;;;21.60;54.50;;;;;;5080368;28;20136;-73
2022/05/10 08:37:30;;;;;;;2.92;2.10;;;20.40;53.30;;;;;;5073195;28;20140;-73
2022/05/10 08:39:58;;;;;;;3.65;2.25;;;21.20;53.80;;;;;;5074405;28;20050;-73
2022/05/10 08:42:26;;;;;;;4.28;2.20;;;22.20;55.10;;;;;;5074760;28;20055;-73
2022/05/10 08:44:56;;;;;;;3.05;2.20;;;22.00;55.70;;;;;;5073744;28;20056;-73
2022/05/10 08:47:23;;;;;;;2.72;2.00;;;20.90;54.00;;;;;;5073130;28;20063;-73
2022/05/10 08:49:50;;;;;;;4.68;2.63;;;21.30;49.60;;;;;;5074371;28;20048;-73
2022/05/10 08:52:18;;;;;;;3.25;1.98;;;21.40;53.50;;;;;;5073507;28;20432;-73
2022/05/10 08:54:45;;;;;;;3.45;2.10;;;21.50;53.70;;;;;;5073415;28;20068;-73
2022/05/10 08:57:15;;;;;;;3.08;2.22;;;21.20;53.20;;;;;;5074402;28;20052;-73
2022/05/10 08:59:57;;;;;;;2.67;2.20;;;21.30;49.60;;;;;;5074160;28;20417;-72
2022/05/10 09:02:28;;;;;;;2.80;2.28;;;21.30;49.60;;;;;;5073452;28;20066;-73
2022/05/10 09:04:56;;;;;;;4.03;2.35;;;21.30;54.20;;;;;;5074350;28;20066;-73
2022/05/10 09:07:32;;;;;;;4.18;2.40;;;21.40;54.40;;;;;;5075232;28;20139;-73
2022/05/10 09:10:03;;;;;;;2.65;2.10;;;21.30;54.20;;;;;;5072958;28;20079;-73
2022/05/10 09:12:30;;;;;;;4.03;2.38;;;21.20;54.80;;;;;;5072508;28;20044;-73
2022/05/10 09:14:59;;;;;;;2.40;1.90;;;21.30;49.70;;;;;;5073076;28;20045;-73
2022/05/10 09:17:28;;;;;;;5.75;2.20;;;21.20;49.70;;;;;;5074182;28;20053;-73
2022/05/10 09:19:55;;;;;;;3.63;2.17;;;21.20;49.80;;;;;;5072523;28;20063;-73
2022/05/10 09:22:26;;;;;;;3.15;2.17;;;21.60;54.00;;;;;;5075120;28;20048;-73
2022/05/10 09:24:56;;;;;;;2.47;1.80;;;21.20;49.80;;;;;;5091418;28;20062;-72
2022/05/10 09:27:25;;;;;;;3.05;2.10;;;21.20;49.90;;;;;;5093074;28;20553;-72
2022/05/10 09:29:53;;;;;;;3.28;2.30;;;20.70;54.70;;;;;;5092876;28;20058;-72
2022/05/10 09:35:09;;;;;;;3.22;2.20;;;21.10;54.60;;;;;;5048644;28;20524;-72
2022/05/10 09:37:37;;;;;;;3.07;2.03;;;21.50;54.50;;;;;;5083093;28;20570;-72
2022/05/10 09:40:12;;;;;;;2.10;1.80;;;21.10;54.50;;;;;;5072414;28;20068;-72
2022/05/10 09:42:40;;;;;;;2.42;1.90;;;21.10;49.40;;;;;;5072543;28;20150;-72
2022/05/10 09:45:11;;;;;;;2.88;1.95;;;21.10;49.90;;;;;;5072285;28;20572;-72
2022/05/10 09:47:38;;;;;;;4.50;2.20;;;21.10;49.90;;;;;;5106274;28;20056;-72
2022/05/10 09:50:14;;;;;;;3.08;2.58;;;21.10;55.00;;;;;;5072245;28;20060;-72
2022/05/10 09:52:41;;;;;;;2.75;2.03;;;20.50;55.70;;;;;;5109096;28;20413;-72
2022/05/10 09:55:11;;;;;;;2.35;1.70;;;21.10;50.00;;;;;;5092362;28;20408;-73
2022/05/10 09:57:38;;;;;;;2.55;2.05;;;21.10;50.00;;;;;;5092119;28;20135;-72
2022/05/10 10:00:06;;;;;;;3.25;2.10;;;21.10;55.20;;;;;;5092859;28;20523;-72
2022/05/10 10:02:34;;;;;;;2.58;1.90;;;21.10;50.00;;;;;;5092404;28;20047;-72
2022/05/10 10:05:17;;;;;;;3.10;2.10;;;21.00;54.00;;;;;;5093372;28;20497;-72
2022/05/10 10:07:49;;;;;;;2.75;2.13;;;20.80;53.30;;;;;;5092339;28;20060;-72
2022/05/10 10:10:18;;;;;;;2.85;2.05;;;21.20;54.50;;;;;;5073040;28;20056;-72
2022/05/10 10:12:45;;;;;;;4.10;2.47;;;21.00;54.80;;;;;;5073299;28;20044;-72
2022/05/10 10:15:24;;;;;;;2.55;2.10;;;21.00;50.10;;;;;;5072981;28;20057;-72
2022/05/10 10:17:52;;;;;;;2.42;2.10;;;21.00;50.10;;;;;;5071653;28;20048;-72
2022/05/10 10:20:24;;;;;;;2.83;2.17;;;21.00;50.20;;;;;;5072508;28;20040;-72
2022/05/10 10:22:52;;;;;;;2.20;1.88;;;21.00;50.20;;;;;;5070835;28;20052;-72
2022/05/10 10:25:29;;;;;;;2.58;2.17;;;20.90;54.30;;;;;;5073829;28;20045;-72
2022/05/10 10:27:58;;;;;;;3.65;2.03;;;20.80;56.00;;;;;;5077013;28;20443;-72
2022/05/10 10:30:28;;;;;;;3.70;2.20;;;20.10;54.40;;;;;;5091438;28;20075;-72
2022/05/10 10:32:57;;;;;;;2.78;2.10;;;21.00;50.20;;;;;;5091213;28;20122;-72
2022/05/10 10:35:38;;;;;;;3.05;2.30;;;21.10;55.70;;;;;;5091706;28;20109;-72
2022/05/10 10:38:11;;;;;;;2.25;2.00;;;21.00;50.20;;;;;;5091623;28;20059;-72
2022/05/10 10:40:42;;;;;;;3.90;2.35;;;20.20;55.20;;;;;;5091557;28;20052;-72
2022/05/10 10:43:14;;;;;;;5.15;2.35;;;21.00;50.20;;;;;;5072477;28;20056;-72
2022/05/10 10:45:42;;;;;;;3.45;2.00;;;21.00;50.20;;;;;;5070858;28;20080;-71
2022/05/10 10:48:20;;;;;;;2.58;2.00;;;21.00;50.30;;;;;;5072063;28;20050;-71
2022/05/10 10:50:46;;;;;;;2.85;1.95;;;21.00;50.20;;;;;;5072121;28;20055;-71
2022/05/10 10:53:13;;;;;;;3.30;2.15;;;21.90;55.00;;;;;;5072115;28;20400;-72
2022/05/10 10:55:52;;;;;;;3.83;2.30;;;19.80;54.00;;;;;;5071262;28;20056;-71
2022/05/10 10:58:21;;;;;;;3.05;2.25;;;21.00;50.20;;;;;;5079531;28;20056;-71
2022/05/10 11:00:51;;;;;;;2.55;2.00;;;20.90;55.20;;;;;;5090919;28;20058;-72
2022/05/10 11:03:24;;;;;;;2.50;2.05;;;20.90;54.30;;;;;;5092218;28;20051;-72
2022/05/10 11:06:16;;;;;;;3.65;2.10;;;21.00;50.20;;;;;;5091374;28;20062;-72
2022/05/10 11:09:20;;;;;;;3.33;2.10;;;21.10;50.40;;;;;;5091076;28;20114;-72
2022/05/10 11:12:03;;;;;;;2.13;1.92;;;21.10;50.20;;;;;;5065839;28;20080;-72
2022/05/10 11:14:42;;;;;;;2.25;2.05;;;21.10;50.20;;;;;;5089155;28;20052;-72
2022/05/10 11:17:13;;;;;;;3.28;2.10;;;20.80;53.70;;;;;;5091084;28;20060;-71
2022/05/10 11:19:51;;;;;;;5.57;2.55;;;21.10;54.10;;;;;;5090336;28;20058;-72
2022/05/10 11:22:26;;;;;;;2.88;2.28;;;21.10;49.70;;;;;;5091053;28;20052;-72
2022/05/10 11:24:56;;;;;;;2.50;2.25;;;21.00;54.00;;;;;;5091005;28;20443;-71
2022/05/10 11:27:32;;;;;;;4.05;2.30;;;20.90;54.60;;;;;;5090957;28;20052;-71
2022/05/10 11:30:06;;;;;;;3.00;2.30;;;21.10;50.20;;;;;;5086525;28;20404;-71
2022/05/10 11:32:59;;;;;;;3.65;2.38;;;21.00;55.50;;;;;;5103851;28;20159;-72
2022/05/10 11:35:42;;;;;;;3.97;2.55;;;21.20;50.20;;;;;;5084099;28;20483;-72
2022/05/10 11:38:12;;;;;;;3.40;2.65;;;21.20;55.10;;;;;;5076119;28;20044;-72
2022/05/10 11:40:45;;;;;;;4.05;2.53;;;21.60;54.00;;;;;;5074527;28;20052;-72
2022/05/10 11:43:31;;;;;;;4.38;2.67;;;21.20;50.30;;;;;;5081232;28;20052;-72
2022/05/10 11:46:06;;;;;;;6.00;2.70;;;21.10;50.20;;;;;;5096040;28;20054;-71
2022/05/10 11:48:40;;;;;;;3.03;2.40;;;21.10;50.80;;;;;;5124062;27;20135;-72
2022/05/10 11:51:42;;;;;;;3.92;2.97;;;21.80;54.40;;;;;;5078734;28;20066;-72
2022/05/10 11:54:29;;;;;;;3.55;2.38;;;21.10;50.20;;;;;;5081373;28;20052;-72
2022/05/10 11:56:56;;;;;;;4.75;2.38;;;21.20;53.60;;;;;;5095863;28;20790;-72
2022/05/10 11:59:26;;;;;;;2.63;2.33;;;21.10;50.30;;;;;;5093829;28;20492;-72
2022/05/10 12:01:53;;;;;;;3.95;2.42;;;21.20;54.40;;;;;;5074259;28;20097;-72
2022/05/10 12:04:34;;;;;;;3.10;2.40;;;21.10;50.30;;;;;;5075717;28;20400;-72
2022/05/10 12:07:31;;;;;;;2.60;2.38;;;21.00;53.50;;;;;;5074276;28;20056;-72
2022/05/10 12:10:00;;;;;;;4.47;2.35;;;21.10;50.30;;;;;;5071029;28;20061;-72
2022/05/10 12:12:57;;;;;;;3.22;2.25;;;21.10;50.30;;;;;;5074456;28;20433;-72
2022/05/10 12:21:21;;;;;;;4.22;2.53;;;21.20;54.40;;;;;;5093165;28;20048;-72
2022/05/10 12:24:06;;;;;;;5.07;2.45;;;21.10;54.70;;;;;;5090903;28;20046;-72
2022/05/10 12:26:43;;;;;;;3.35;2.63;;;20.90;54.90;;;;;;5095488;28;20120;-72
2022/05/10 12:29:35;;;;;;;3.13;2.45;;;21.10;54.80;;;;;;5089946;28;20131;-72
2022/05/10 12:32:04;;;;;;;2.83;2.40;;;21.00;54.70;;;;;;5096393;28;20068;-72
2022/05/10 12:34:46;;;;;;;4.38;2.40;;;22.00;56.90;;;;;;5102446;28;20125;-72
2022/05/10 12:37:35;;;;;;;3.92;2.45;;;21.20;54.40;;;;;;5100451;28;20431;-72
2022/05/10 12:40:04;;;;;;;2.90;2.53;;;21.20;50.40;;;;;;5100788;28;20060;-72
2022/05/10 12:42:35;;;;;;;3.13;2.42;;;21.00;55.70;;;;;;5101299;28;20083;-72
2022/05/10 12:45:18;;;;;;;3.30;2.40;;;21.20;54.70;;;;;;5102786;28;20043;-72
2022/05/10 12:47:55;;;;;;;3.78;2.42;;;21.30;54.80;;;;;;5100305;28;20040;-72
2022/05/10 12:50:38;;;;;;;3.60;2.50;;;21.30;49.80;;;;;;5102876;28;20488;-72
2022/05/10 12:53:10;;;;;;;3.38;2.33;;;21.30;50.30;;;;;;5097383;28;20047;-72
2022/05/10 12:55:37;;;;;;;3.47;2.58;;;21.40;54.60;;;;;;5103598;28;20067;-72
2022/05/10 12:58:06;;;;;;;3.45;2.50;;;21.30;50.30;;;;;;5104674;28;20600;-72
2022/05/10 13:00:36;;;;;;;2.88;2.25;;;21.30;50.30;;;;;;5105134;28;20048;-73
2022/05/10 13:03:06;;;;;;;3.97;2.42;;;21.40;54.70;;;;;;5102321;28;20056;-72
2022/05/10 13:05:46;;;;;;;4.30;2.33;;;21.30;50.30;;;;;;5101743;28;20058;-73
2022/05/10 13:08:38;;;;;;;3.47;2.70;;;21.40;53.80;;;;;;5102074;28;20127;-73
2022/05/10 13:11:05;;;;;;;4.30;2.63;;;21.30;50.30;;;;;;5102130;28;20497;-73
2022/05/10 13:13:33;;;;;;;3.97;2.40;;;21.00;55.20;;;;;;5104893;28;20047;-72